Terminal Aerodrome Forecast
Issued by NWS

Home | Current Version | Previous Version | Text Only | Print | Product List | Glossary On
Versions: 1 2 3 4 5 6 7 8 9 10 11 12 13 14
000
FTUS45 KRIW 072333
TAFPNA
TAF
KPNA 072333Z 0800/0824 VRB05KT P6SM FEW050
     FM080200 30005KT P6SM VCFG FEW005 SCT250
     FM081500 VRB06KT P6SM SKC
     FM082100 VRB06KT P6SM BKN100
      AMD LTD TO CLD VIS AND WIND=

USA.gov is the U.S. government's official web portal to all federal, state and local government web resources and services.